createdAt,value
2023-03-31T00:03:44.875Z,46.30
2023-03-31T00:08:52.541Z,46.45
2023-03-31T00:13:54.964Z,46.24
2023-03-31T00:18:57.134Z,46.13
2023-03-31T00:24:01.488Z,46.35
2023-03-31T00:29:05.761Z,46.22
2023-03-31T00:34:08.066Z,46.09
2023-03-31T00:39:10.158Z,46.04
2023-03-31T00:44:19.335Z,46.07
2023-03-31T00:49:40.734Z,46.00
2023-03-31T00:54:46.014Z,46.03
2023-03-31T00:59:54.095Z,46.10
2023-03-31T01:04:59.920Z,46.21
2023-03-31T01:10:05.455Z,46.13
2023-03-31T01:15:08.223Z,46.16
2023-03-31T01:20:13.116Z,46.42
2023-03-31T01:25:17.927Z,46.04
2023-03-31T01:30:50.760Z,46.24
2023-03-31T01:36:08.948Z,46.17
2023-03-31T01:41:20.252Z,46.14
2023-03-31T01:46:40.867Z,46.48
2023-03-31T01:52:05.110Z,46.26
2023-03-31T01:57:22.814Z,46.06
2023-03-31T02:02:38.085Z,46.37
2023-03-31T02:07:45.552Z,46.22
2023-03-31T02:12:49.805Z,46.15
2023-03-31T02:17:55.885Z,46.32
2023-03-31T02:22:59.203Z,46.33
2023-03-31T02:28:05.061Z,46.39
2023-03-31T02:33:07.450Z,46.39
2023-03-31T02:38:09.752Z,46.46
2023-03-31T02:43:11.779Z,46.31
2023-03-31T02:48:24.079Z,46.25
2023-03-31T02:53:41.575Z,46.07
2023-03-31T02:58:57.744Z,46.45
2023-03-31T03:04:26.020Z,46.29
2023-03-31T03:09:55.633Z,46.43
2023-03-31T03:15:09.038Z,46.51
2023-03-31T03:20:12.817Z,46.54
2023-03-31T03:25:17.687Z,46.14
2023-03-31T03:30:20.259Z,46.42
2023-03-31T03:35:22.433Z,46.42
2023-03-31T03:40:24.292Z,46.21
2023-03-31T03:45:26.584Z,46.52
2023-03-31T03:50:28.566Z,46.14
2023-03-31T03:55:30.486Z,46.12
2023-03-31T04:00:32.702Z,46.08
2023-03-31T04:05:34.763Z,46.19
2023-03-31T04:10:37.022Z,46.37
2023-03-31T04:15:39.176Z,46.40
2023-03-31T04:20:41.296Z,46.20
2023-03-31T04:25:46.861Z,46.39
2023-03-31T04:30:49.374Z,46.40
2023-03-31T04:35:52.902Z,46.37
2023-03-31T04:40:55.051Z,46.26
2023-03-31T04:45:57.208Z,46.19
2023-03-31T04:50:59.375Z,46.52
2023-03-31T04:56:01.631Z,46.14
2023-03-31T05:01:04.230Z,46.19
2023-03-31T05:06:06.599Z,46.29
2023-03-31T05:11:08.757Z,46.34
2023-03-31T05:16:14.938Z,46.42
2023-03-31T05:21:20.296Z,46.20
2023-03-31T05:26:25.517Z,46.39
2023-03-31T05:31:27.739Z,46.79
2023-03-31T05:36:29.956Z,46.97
2023-03-31T05:41:32.284Z,46.86
2023-03-31T05:46:34.260Z,46.88
2023-03-31T05:51:36.289Z,46.66
2023-03-31T05:56:38.298Z,46.51
2023-03-31T06:01:40.371Z,46.56
2023-03-31T06:06:43.295Z,46.50
2023-03-31T06:11:45.422Z,46.53
2023-03-31T06:16:48.658Z,48.29
2023-03-31T06:21:51.445Z,49.09
2023-03-31T06:26:54.173Z,48.48
2023-03-31T06:31:56.403Z,48.29
2023-03-31T06:36:58.452Z,48.13
2023-03-31T06:42:00.361Z,47.92
2023-03-31T06:47:02.209Z,48.21
2023-03-31T06:52:04.432Z,47.94
2023-03-31T06:57:06.710Z,47.93
2023-03-31T07:02:11.233Z,47.48
2023-03-31T07:07:13.497Z,47.65
2023-03-31T07:12:15.452Z,47.50
2023-03-31T07:17:17.433Z,47.00
2023-03-31T07:22:19.549Z,47.26
2023-03-31T07:27:23.591Z,46.85
2023-03-31T07:32:29.009Z,46.88
2023-03-31T07:37:38.803Z,46.96
2023-03-31T07:42:40.928Z,46.43
2023-03-31T07:47:44.025Z,46.44
2023-03-31T07:52:47.317Z,46.15
2023-03-31T07:57:50.517Z,46.40
2023-03-31T08:02:52.539Z,46.13
2023-03-31T08:07:54.701Z,46.40
2023-03-31T08:12:57.111Z,46.49
2023-03-31T08:17:59.162Z,46.42
2023-03-31T08:23:01.311Z,46.12
2023-03-31T08:28:03.355Z,46.21
2023-03-31T08:33:05.303Z,46.05
2023-03-31T08:38:07.562Z,45.91
2023-03-31T08:43:16.057Z,46.10
2023-03-31T08:48:18.087Z,46.11
2023-03-31T08:53:44.180Z,45.80
2023-03-31T08:58:48.558Z,46.25
2023-03-31T09:04:27.727Z,46.22
2023-03-31T09:09:58.952Z,46.49
2023-03-31T09:15:02.904Z,46.30
2023-03-31T09:20:14.150Z,46.11
2023-03-31T09:25:28.034Z,45.84
2023-03-31T09:30:32.864Z,45.96
2023-03-31T09:35:34.980Z,45.54
2023-03-31T09:40:37.246Z,45.72
2023-03-31T09:45:39.437Z,45.44
2023-03-31T09:50:48.013Z,45.25
2023-03-31T09:56:01.246Z,45.38
2023-03-31T10:01:06.923Z,45.36
2023-03-31T10:06:11.671Z,45.50
2023-03-31T10:11:14.720Z,45.26
2023-03-31T10:16:34.872Z,45.48
2023-03-31T10:21:38.939Z,45.27
2023-03-31T10:26:41.444Z,45.40
2023-03-31T10:31:43.561Z,45.38
2023-03-31T10:36:48.602Z,45.60
2023-03-31T10:41:53.122Z,45.94
2023-03-31T10:46:55.183Z,46.04
2023-03-31T10:51:59.386Z,45.70
2023-03-31T10:57:04.871Z,45.65
2023-03-31T11:02:46.916Z,45.83
2023-03-31T11:08:13.496Z,45.65
2023-03-31T11:13:21.854Z,45.84
2023-03-31T11:18:42.259Z,45.51
2023-03-31T11:24:04.414Z,46.17
2023-03-31T11:29:27.156Z,46.14
2023-03-31T11:34:29.864Z,46.20
2023-03-31T11:39:49.604Z,46.33
2023-03-31T11:44:58.419Z,46.10
2023-03-31T11:50:15.217Z,45.96
2023-03-31T11:55:21.896Z,46.16
2023-03-31T12:00:30.437Z,46.39
2023-03-31T12:05:34.329Z,46.06
2023-03-31T12:10:43.619Z,46.16
2023-03-31T12:16:05.036Z,46.15
2023-03-31T12:21:10.319Z,45.72
2023-03-31T12:26:28.488Z,45.64
2023-03-31T12:31:33.621Z,45.47
2023-03-31T12:37:25.153Z,45.16
2023-03-31T12:43:06.211Z,46.16
2023-03-31T12:48:26.875Z,45.10
2023-03-31T12:54:00.812Z,44.85
2023-03-31T12:59:26.187Z,45.16
2023-03-31T13:04:28.266Z,44.94
2023-03-31T13:09:45.016Z,44.89
2023-03-31T13:14:51.997Z,44.80
2023-03-31T13:19:55.724Z,44.96
2023-03-31T13:25:26.937Z,44.67
2023-03-31T13:30:37.501Z,45.56
2023-03-31T13:35:43.009Z,45.11
2023-03-31T13:41:22.181Z,45.10
2023-03-31T13:46:46.033Z,44.99
2023-03-31T13:52:02.438Z,45.43
2023-03-31T13:57:27.655Z,45.34
2023-03-31T14:02:51.096Z,46.20
2023-03-31T14:08:08.138Z,46.85
2023-03-31T14:13:20.496Z,48.02
2023-03-31T14:18:28.516Z,49.04
2023-03-31T14:23:57.171Z,48.25
2023-03-31T14:29:15.231Z,47.85
2023-03-31T14:35:10.636Z,47.74
2023-03-31T14:40:17.064Z,47.45
2023-03-31T14:45:21.026Z,47.03
2023-03-31T14:50:28.866Z,46.92
2023-03-31T14:55:54.354Z,46.91
2023-03-31T15:00:56.550Z,46.78
2023-03-31T15:05:59.931Z,46.92
2023-03-31T15:16:46.575Z,46.87
2023-03-31T15:22:16.739Z,46.49
2023-03-31T15:27:23.492Z,46.59
2023-03-31T15:32:37.543Z,47.17
2023-03-31T15:37:41.958Z,46.89
2023-03-31T15:42:55.031Z,46.80
2023-03-31T15:48:36.488Z,46.65
2023-03-31T15:53:45.171Z,46.87
2023-03-31T15:59:22.468Z,46.80
2023-03-31T16:04:25.184Z,46.57
2023-03-31T16:09:51.216Z,46.39
2023-03-31T16:15:14.442Z,46.22
2023-03-31T16:20:27.489Z,46.36
2023-03-31T16:25:32.123Z,46.13
2023-03-31T16:30:40.182Z,45.89
2023-03-31T16:35:54.192Z,46.17
2023-03-31T16:40:58.217Z,45.99
2023-03-31T16:46:03.708Z,46.21
2023-03-31T16:51:06.538Z,45.87
2023-03-31T16:56:09.106Z,45.84
2023-03-31T17:01:12.238Z,45.94
2023-03-31T17:06:14.244Z,45.91
2023-03-31T17:11:16.544Z,46.36
2023-03-31T17:21:40.498Z,46.36
2023-03-31T17:26:42.500Z,46.55
2023-03-31T17:31:44.966Z,46.80
2023-03-31T17:36:47.721Z,46.29
2023-03-31T17:41:49.913Z,46.20
2023-03-31T17:46:52.341Z,46.27
2023-03-31T17:51:54.702Z,46.00
2023-03-31T17:56:57.103Z,45.70
2023-03-31T18:01:59.552Z,45.93
2023-03-31T18:07:01.704Z,45.87
2023-03-31T18:12:04.427Z,45.80
2023-03-31T18:17:06.547Z,45.91
2023-03-31T18:22:09.343Z,45.69
2023-03-31T18:27:11.349Z,45.89
2023-03-31T18:32:14.111Z,45.67
2023-03-31T18:37:16.218Z,45.50
2023-03-31T18:42:20.589Z,46.34
2023-03-31T18:47:22.790Z,46.34
2023-03-31T18:52:24.901Z,46.46
2023-03-31T18:57:27.098Z,46.65
2023-03-31T19:02:29.094Z,47.11
2023-03-31T19:07:32.506Z,47.72
2023-03-31T19:12:34.656Z,47.02
2023-03-31T19:17:37.107Z,47.65
2023-03-31T19:22:39.042Z,47.53
2023-03-31T19:27:41.774Z,47.44
2023-03-31T19:32:43.923Z,47.17
2023-03-31T19:37:47.213Z,47.12
2023-03-31T19:42:49.374Z,47.13
2023-03-31T19:47:51.545Z,47.15
2023-03-31T19:52:53.710Z,46.89
2023-03-31T19:57:56.452Z,46.85
2023-03-31T20:02:58.615Z,46.78
2023-03-31T20:08:01.119Z,46.92
2023-03-31T20:13:03.348Z,46.75
2023-03-31T20:18:05.592Z,47.07
2023-03-31T20:23:07.962Z,46.71
2023-03-31T20:28:10.235Z,46.72
2023-03-31T20:33:12.659Z,47.00
2023-03-31T20:38:15.354Z,46.97
2023-03-31T20:43:17.299Z,46.85
2023-03-31T20:48:19.687Z,47.11
2023-03-31T20:53:21.897Z,47.14
2023-03-31T20:58:24.344Z,47.25
2023-03-31T21:03:26.463Z,52.67
2023-03-31T21:08:28.641Z,51.61
2023-03-31T21:13:32.249Z,50.29
2023-03-31T21:18:35.328Z,50.21
2023-03-31T21:23:37.508Z,50.01
2023-03-31T21:28:39.538Z,49.88
2023-03-31T21:33:43.221Z,49.27
2023-03-31T21:38:45.932Z,49.13
2023-03-31T21:43:49.090Z,48.89
2023-03-31T21:48:51.166Z,49.05
2023-03-31T21:53:55.866Z,48.88
2023-03-31T21:58:57.950Z,48.48
2023-03-31T22:04:00.914Z,48.55
2023-03-31T22:09:02.980Z,48.29
2023-03-31T22:14:05.038Z,48.13
2023-03-31T22:19:07.787Z,48.39
2023-03-31T22:24:12.042Z,47.93
2023-03-31T22:29:15.983Z,47.77
2023-03-31T22:34:19.947Z,47.79
2023-03-31T22:39:22.065Z,47.98
2023-03-31T22:44:24.040Z,47.84
2023-03-31T22:49:26.231Z,47.92
2023-03-31T22:54:28.393Z,47.50
2023-03-31T22:59:30.554Z,47.64
2023-03-31T23:04:32.646Z,47.18
2023-03-31T23:09:34.920Z,47.47
2023-03-31T23:14:36.982Z,47.18
2023-03-31T23:19:39.144Z,47.23
2023-03-31T23:24:42.044Z,47.40
2023-03-31T23:29:44.521Z,47.14
2023-03-31T23:34:46.738Z,47.21
2023-03-31T23:39:48.694Z,47.20
2023-03-31T23:44:50.972Z,47.13
2023-03-31T23:49:53.860Z,47.12
2023-03-31T23:54:55.975Z,46.81
2023-03-31T23:59:58.184Z,47.17
